sensor_id;sensor_type;location;lat;lon;timestamp;temperature;humidity
25108;DHT22;13090;53.422;7.670;2023-07-30T00:02:49;19.00;79.40
25108;DHT22;13090;53.422;7.670;2023-07-30T00:08:10;18.90;79.20
25108;DHT22;13090;53.422;7.670;2023-07-30T00:13:32;18.90;79.30
25108;DHT22;13090;53.422;7.670;2023-07-30T00:18:52;18.90;79.60
25108;DHT22;13090;53.422;7.670;2023-07-30T00:24:13;18.80;79.30
25108;DHT22;13090;53.422;7.670;2023-07-30T00:29:36;18.80;79.50
25108;DHT22;13090;53.422;7.670;2023-07-30T00:34:56;18.70;80.00
25108;DHT22;13090;53.422;7.670;2023-07-30T00:40:18;18.70;79.90
25108;DHT22;13090;53.422;7.670;2023-07-30T00:45:43;18.60;80.20
25108;DHT22;13090;53.422;7.670;2023-07-30T00:51:04;18.60;80.60
25108;DHT22;13090;53.422;7.670;2023-07-30T00:56:26;18.50;80.50
25108;DHT22;13090;53.422;7.670;2023-07-30T01:01:50;18.50;80.60
25108;DHT22;13090;53.422;7.670;2023-07-30T01:07:11;18.40;80.90
25108;DHT22;13090;53.422;7.670;2023-07-30T01:12:34;18.40;80.80
25108;DHT22;13090;53.422;7.670;2023-07-30T01:17:58;18.40;81.00
25108;DHT22;13090;53.422;7.670;2023-07-30T01:23:20;18.40;81.20
25108;DHT22;13090;53.422;7.670;2023-07-30T01:28:44;18.30;81.20
25108;DHT22;13090;53.422;7.670;2023-07-30T01:34:07;18.30;81.60
25108;DHT22;13090;53.422;7.670;2023-07-30T01:39:31;18.20;81.40
25108;DHT22;13090;53.422;7.670;2023-07-30T01:44:52;18.20;81.60
25108;DHT22;13090;53.422;7.670;2023-07-30T01:50:13;18.10;81.70
25108;DHT22;13090;53.422;7.670;2023-07-30T01:55:35;18.10;81.80
25108;DHT22;13090;53.422;7.670;2023-07-30T02:00:56;18.00;82.20
25108;DHT22;13090;53.422;7.670;2023-07-30T02:06:17;18.00;82.30
25108;DHT22;13090;53.422;7.670;2023-07-30T02:11:39;18.00;82.40
25108;DHT22;13090;53.422;7.670;2023-07-30T02:17:00;18.00;82.70
25108;DHT22;13090;53.422;7.670;2023-07-30T02:22:21;17.90;82.50
25108;DHT22;13090;53.422;7.670;2023-07-30T02:27:43;17.90;82.60
25108;DHT22;13090;53.422;7.670;2023-07-30T02:33:04;17.90;82.90
25108;DHT22;13090;53.422;7.670;2023-07-30T02:38:25;17.80;82.90
25108;DHT22;13090;53.422;7.670;2023-07-30T02:43:47;17.80;83.00
25108;DHT22;13090;53.422;7.670;2023-07-30T02:49:08;17.70;83.10
25108;DHT22;13090;53.422;7.670;2023-07-30T02:54:29;17.70;83.30
25108;DHT22;13090;53.422;7.670;2023-07-30T02:59:51;17.70;83.50
25108;DHT22;13090;53.422;7.670;2023-07-30T03:05:12;17.70;83.80
25108;DHT22;13090;53.422;7.670;2023-07-30T03:10:33;17.80;83.70
25108;DHT22;13090;53.422;7.670;2023-07-30T03:15:55;17.80;83.80
25108;DHT22;13090;53.422;7.670;2023-07-30T03:21:15;17.80;84.20
25108;DHT22;13090;53.422;7.670;2023-07-30T03:26:36;17.80;84.30
25108;DHT22;13090;53.422;7.670;2023-07-30T03:32:00;17.80;84.40
25108;DHT22;13090;53.422;7.670;2023-07-30T03:37:21;17.80;84.40
25108;DHT22;13090;53.422;7.670;2023-07-30T03:42:42;17.80;84.70
25108;DHT22;13090;53.422;7.670;2023-07-30T03:48:04;17.80;84.60
25108;DHT22;13090;53.422;7.670;2023-07-30T03:53:25;17.90;85.00
25108;DHT22;13090;53.422;7.670;2023-07-30T03:58:46;17.90;84.90
25108;DHT22;13090;53.422;7.670;2023-07-30T04:04:08;18.00;85.10
25108;DHT22;13090;53.422;7.670;2023-07-30T04:09:29;18.00;85.20
25108;DHT22;13090;53.422;7.670;2023-07-30T04:14:50;18.00;85.00
25108;DHT22;13090;53.422;7.670;2023-07-30T04:20:12;18.10;84.90
25108;DHT22;13090;53.422;7.670;2023-07-30T04:25:33;18.10;85.00
25108;DHT22;13090;53.422;7.670;2023-07-30T04:30:54;18.10;84.90
25108;DHT22;13090;53.422;7.670;2023-07-30T04:36:16;18.10;85.10
25108;DHT22;13090;53.422;7.670;2023-07-30T04:41:37;18.20;85.20
25108;DHT22;13090;53.422;7.670;2023-07-30T04:46:58;18.20;85.10
25108;DHT22;13090;53.422;7.670;2023-07-30T04:52:20;18.30;85.40
25108;DHT22;13090;53.422;7.670;2023-07-30T04:57:41;18.40;85.50
25108;DHT22;13090;53.422;7.670;2023-07-30T05:03:02;18.50;85.40
25108;DHT22;13090;53.422;7.670;2023-07-30T05:08:24;18.70;85.80
25108;DHT22;13090;53.422;7.670;2023-07-30T05:13:45;18.90;87.00
25108;DHT22;13090;53.422;7.670;2023-07-30T05:19:06;19.20;85.40
25108;DHT22;13090;53.422;7.670;2023-07-30T05:24:28;19.30;84.60
25108;DHT22;13090;53.422;7.670;2023-07-30T05:29:48;19.30;84.30
25108;DHT22;13090;53.422;7.670;2023-07-30T05:35:09;19.40;84.20
25108;DHT22;13090;53.422;7.670;2023-07-30T05:40:32;19.40;84.00
25108;DHT22;13090;53.422;7.670;2023-07-30T05:45:52;19.50;84.40
25108;DHT22;13090;53.422;7.670;2023-07-30T05:51:13;19.70;84.80
25108;DHT22;13090;53.422;7.670;2023-07-30T05:56:35;20.00;84.60
25108;DHT22;13090;53.422;7.670;2023-07-30T06:01:56;20.30;83.80
25108;DHT22;13090;53.422;7.670;2023-07-30T06:07:17;20.50;83.40
25108;DHT22;13090;53.422;7.670;2023-07-30T06:12:39;20.60;82.60
25108;DHT22;13090;53.422;7.670;2023-07-30T06:18:01;20.70;82.50
25108;DHT22;13090;53.422;7.670;2023-07-30T06:23:22;20.70;82.10
25108;DHT22;13090;53.422;7.670;2023-07-30T06:28:43;20.70;83.10
25108;DHT22;13090;53.422;7.670;2023-07-30T06:34:04;20.80;82.40
25108;DHT22;13090;53.422;7.670;2023-07-30T06:39:25;21.00;81.90
25108;DHT22;13090;53.422;7.670;2023-07-30T06:44:47;21.10;81.40
25108;DHT22;13090;53.422;7.670;2023-07-30T06:50:09;21.10;81.00
25108;DHT22;13090;53.422;7.670;2023-07-30T06:55:29;21.10;80.60
25108;DHT22;13090;53.422;7.670;2023-07-30T07:00:52;21.00;80.50
25108;DHT22;13090;53.422;7.670;2023-07-30T07:06:13;21.00;80.70
25108;DHT22;13090;53.422;7.670;2023-07-30T07:11:33;21.00;80.50
25108;DHT22;13090;53.422;7.670;2023-07-30T07:16:56;21.00;80.40
25108;DHT22;13090;53.422;7.670;2023-07-30T07:22:17;21.00;80.40
25108;DHT22;13090;53.422;7.670;2023-07-30T07:27:38;20.90;80.10
25108;DHT22;13090;53.422;7.670;2023-07-30T07:33:00;20.90;80.40
25108;DHT22;13090;53.422;7.670;2023-07-30T07:38:21;20.90;80.70
25108;DHT22;13090;53.422;7.670;2023-07-30T07:43:43;21.00;81.30
25108;DHT22;13090;53.422;7.670;2023-07-30T07:49:05;20.90;80.20
25108;DHT22;13090;53.422;7.670;2023-07-30T07:54:26;20.90;80.30
25108;DHT22;13090;53.422;7.670;2023-07-30T07:59:47;20.80;80.40
25108;DHT22;13090;53.422;7.670;2023-07-30T08:05:11;20.70;80.70
25108;DHT22;13090;53.422;7.670;2023-07-30T08:10:32;20.60;81.00
25108;DHT22;13090;53.422;7.670;2023-07-30T08:15:52;20.60;81.20
25108;DHT22;13090;53.422;7.670;2023-07-30T08:21:15;20.70;81.70
25108;DHT22;13090;53.422;7.670;2023-07-30T08:26:35;20.90;81.40
25108;DHT22;13090;53.422;7.670;2023-07-30T08:31:56;21.00;80.90
25108;DHT22;13090;53.422;7.670;2023-07-30T08:37:18;21.00;80.40
25108;DHT22;13090;53.422;7.670;2023-07-30T08:42:40;21.00;80.50
25108;DHT22;13090;53.422;7.670;2023-07-30T08:48:00;21.10;80.00
25108;DHT22;13090;53.422;7.670;2023-07-30T08:53:25;21.20;80.10
25108;DHT22;13090;53.422;7.670;2023-07-30T08:58:47;21.40;79.80
25108;DHT22;13090;53.422;7.670;2023-07-30T09:04:10;21.50;79.50
25108;DHT22;13090;53.422;7.670;2023-07-30T09:09:33;21.70;79.90
25108;DHT22;13090;53.422;7.670;2023-07-30T09:14:54;22.30;81.40
25108;DHT22;13090;53.422;7.670;2023-07-30T09:20:17;23.20;80.10
25108;DHT22;13090;53.422;7.670;2023-07-30T09:25:39;23.80;76.20
25108;DHT22;13090;53.422;7.670;2023-07-30T09:31:00;24.20;75.30
25108;DHT22;13090;53.422;7.670;2023-07-30T09:36:40;24.70;75.40
25108;DHT22;13090;53.422;7.670;2023-07-30T09:42:02;25.30;73.30
25108;DHT22;13090;53.422;7.670;2023-07-30T09:47:26;25.40;69.30
25108;DHT22;13090;53.422;7.670;2023-07-30T09:52:47;25.20;68.70
25108;DHT22;13090;53.422;7.670;2023-07-30T09:58:09;24.80;65.80
25108;DHT22;13090;53.422;7.670;2023-07-30T10:03:30;24.20;66.60
25108;DHT22;13090;53.422;7.670;2023-07-30T10:08:53;23.60;67.70
25108;DHT22;13090;53.422;7.670;2023-07-30T10:14:21;23.10;68.40
25108;DHT22;13090;53.422;7.670;2023-07-30T10:19:46;22.60;70.20
25108;DHT22;13090;53.422;7.670;2023-07-30T10:25:12;22.30;71.70
25108;DHT22;13090;53.422;7.670;2023-07-30T10:30:35;22.10;72.60
25108;DHT22;13090;53.422;7.670;2023-07-30T10:35:56;22.00;73.70
25108;DHT22;13090;53.422;7.670;2023-07-30T10:41:21;22.00;74.30
25108;DHT22;13090;53.422;7.670;2023-07-30T10:46:43;22.10;74.90
25108;DHT22;13090;53.422;7.670;2023-07-30T10:52:05;22.00;73.80
25108;DHT22;13090;53.422;7.670;2023-07-30T10:57:30;21.70;74.10
25108;DHT22;13090;53.422;7.670;2023-07-30T11:02:54;21.30;75.00
25108;DHT22;13090;53.422;7.670;2023-07-30T11:08:16;21.10;76.10
25108;DHT22;13090;53.422;7.670;2023-07-30T11:13:38;20.90;76.70
25108;DHT22;13090;53.422;7.670;2023-07-30T11:19:00;20.80;77.00
25108;DHT22;13090;53.422;7.670;2023-07-30T11:24:34;20.60;77.50
25108;DHT22;13090;53.422;7.670;2023-07-30T11:29:56;20.50;78.30
25108;DHT22;13090;53.422;7.670;2023-07-30T11:35:19;20.40;79.20
25108;DHT22;13090;53.422;7.670;2023-07-30T11:40:40;20.60;79.70
25108;DHT22;13090;53.422;7.670;2023-07-30T11:46:07;20.80;81.00
25108;DHT22;13090;53.422;7.670;2023-07-30T11:51:29;21.50;82.10
25108;DHT22;13090;53.422;7.670;2023-07-30T11:56:54;22.30;80.90
25108;DHT22;13090;53.422;7.670;2023-07-30T12:02:17;22.90;77.40
25108;DHT22;13090;53.422;7.670;2023-07-30T12:07:43;23.20;74.60
25108;DHT22;13090;53.422;7.670;2023-07-30T12:13:11;23.20;74.20
25108;DHT22;13090;53.422;7.670;2023-07-30T12:18:32;23.20;74.50
25108;DHT22;13090;53.422;7.670;2023-07-30T12:23:54;23.30;74.90
25108;DHT22;13090;53.422;7.670;2023-07-30T12:29:15;23.60;74.20
25108;DHT22;13090;53.422;7.670;2023-07-30T12:34:36;23.80;74.10
25108;DHT22;13090;53.422;7.670;2023-07-30T12:39:58;24.10;74.00
25108;DHT22;13090;53.422;7.670;2023-07-30T12:45:19;24.50;73.40
25108;DHT22;13090;53.422;7.670;2023-07-30T12:50:40;24.90;72.10
25108;DHT22;13090;53.422;7.670;2023-07-30T12:56:02;25.10;70.00
25108;DHT22;13090;53.422;7.670;2023-07-30T13:01:23;25.20;69.60
25108;DHT22;13090;53.422;7.670;2023-07-30T13:06:44;25.10;69.20
25108;DHT22;13090;53.422;7.670;2023-07-30T13:12:07;24.90;69.00
25108;DHT22;13090;53.422;7.670;2023-07-30T13:17:29;24.70;69.40
25108;DHT22;13090;53.422;7.670;2023-07-30T13:22:50;24.50;70.00
25108;DHT22;13090;53.422;7.670;2023-07-30T13:28:13;24.40;71.60
25108;DHT22;13090;53.422;7.670;2023-07-30T13:33:34;24.10;70.90
25108;DHT22;13090;53.422;7.670;2023-07-30T13:38:55;23.80;71.70
25108;DHT22;13090;53.422;7.670;2023-07-30T13:44:17;23.60;73.00
25108;DHT22;13090;53.422;7.670;2023-07-30T13:49:37;23.60;73.80
25108;DHT22;13090;53.422;7.670;2023-07-30T13:54:58;23.60;73.60
25108;DHT22;13090;53.422;7.670;2023-07-30T14:00:21;23.70;73.00
25108;DHT22;13090;53.422;7.670;2023-07-30T14:05:41;23.80;72.20
25108;DHT22;13090;53.422;7.670;2023-07-30T14:11:02;23.80;71.80
25108;DHT22;13090;53.422;7.670;2023-07-30T14:16:25;23.90;72.30
25108;DHT22;13090;53.422;7.670;2023-07-30T14:21:46;24.00;73.40
25108;DHT22;13090;53.422;7.670;2023-07-30T14:27:07;24.20;72.50
25108;DHT22;13090;53.422;7.670;2023-07-30T14:32:29;24.30;72.10
25108;DHT22;13090;53.422;7.670;2023-07-30T14:37:50;24.30;71.50
25108;DHT22;13090;53.422;7.670;2023-07-30T14:43:11;24.20;71.70
25108;DHT22;13090;53.422;7.670;2023-07-30T14:48:33;24.10;71.40
25108;DHT22;13090;53.422;7.670;2023-07-30T14:53:54;23.80;71.60
25108;DHT22;13090;53.422;7.670;2023-07-30T14:59:14;23.60;72.30
25108;DHT22;13090;53.422;7.670;2023-07-30T15:04:37;23.40;72.70
25108;DHT22;13090;53.422;7.670;2023-07-30T15:09:58;23.30;73.70
25108;DHT22;13090;53.422;7.670;2023-07-30T15:15:19;23.30;73.50
25108;DHT22;13090;53.422;7.670;2023-07-30T15:20:42;23.30;72.90
25108;DHT22;13090;53.422;7.670;2023-07-30T15:26:03;23.30;72.90
25108;DHT22;13090;53.422;7.670;2023-07-30T15:31:24;23.20;72.50
25108;DHT22;13090;53.422;7.670;2023-07-30T15:36:47;23.10;72.00
25108;DHT22;13090;53.422;7.670;2023-07-30T15:42:08;23.00;72.00
25108;DHT22;13090;53.422;7.670;2023-07-30T15:47:29;22.90;72.30
25108;DHT22;13090;53.422;7.670;2023-07-30T15:52:51;22.80;72.40
25108;DHT22;13090;53.422;7.670;2023-07-30T15:58:12;22.80;72.80
25108;DHT22;13090;53.422;7.670;2023-07-30T16:03:33;22.60;73.10
25108;DHT22;13090;53.422;7.670;2023-07-30T16:08:55;22.60;73.50
25108;DHT22;13090;53.422;7.670;2023-07-30T16:14:16;22.50;73.70
25108;DHT22;13090;53.422;7.670;2023-07-30T16:19:37;22.40;73.60
25108;DHT22;13090;53.422;7.670;2023-07-30T16:24:59;22.00;72.70
25108;DHT22;13090;53.422;7.670;2023-07-30T16:30:20;21.50;73.40
25108;DHT22;13090;53.422;7.670;2023-07-30T16:35:41;21.10;74.30
25108;DHT22;13090;53.422;7.670;2023-07-30T16:41:03;20.80;75.10
25108;DHT22;13090;53.422;7.670;2023-07-30T16:46:24;20.60;75.60
25108;DHT22;13090;53.422;7.670;2023-07-30T16:51:45;20.40;76.30
25108;DHT22;13090;53.422;7.670;2023-07-30T16:57:08;20.50;76.90
25108;DHT22;13090;53.422;7.670;2023-07-30T17:02:29;20.50;77.20
25108;DHT22;13090;53.422;7.670;2023-07-30T17:07:50;20.50;77.20
25108;DHT22;13090;53.422;7.670;2023-07-30T17:13:14;20.50;77.30
25108;DHT22;13090;53.422;7.670;2023-07-30T17:18:36;20.50;77.30
25108;DHT22;13090;53.422;7.670;2023-07-30T17:23:58;20.40;76.40
25108;DHT22;13090;53.422;7.670;2023-07-30T17:29:21;20.30;76.70
25108;DHT22;13090;53.422;7.670;2023-07-30T17:34:42;20.30;77.60
25108;DHT22;13090;53.422;7.670;2023-07-30T17:40:07;20.40;77.40
25108;DHT22;13090;53.422;7.670;2023-07-30T17:45:30;20.50;77.50
25108;DHT22;13090;53.422;7.670;2023-07-30T17:50:58;20.50;77.70
25108;DHT22;13090;53.422;7.670;2023-07-30T17:56:22;20.60;77.40
25108;DHT22;13090;53.422;7.670;2023-07-30T18:01:44;20.50;77.00
25108;DHT22;13090;53.422;7.670;2023-07-30T18:07:06;20.50;77.30
25108;DHT22;13090;53.422;7.670;2023-07-30T18:12:27;20.50;77.20
25108;DHT22;13090;53.422;7.670;2023-07-30T18:17:49;20.40;77.20
25108;DHT22;13090;53.422;7.670;2023-07-30T18:23:09;20.40;77.40
25108;DHT22;13090;53.422;7.670;2023-07-30T18:28:30;20.40;77.60
25108;DHT22;13090;53.422;7.670;2023-07-30T18:33:52;20.30;77.50
25108;DHT22;13090;53.422;7.670;2023-07-30T18:39:13;20.30;77.60
25108;DHT22;13090;53.422;7.670;2023-07-30T18:44:34;20.20;77.50
25108;DHT22;13090;53.422;7.670;2023-07-30T18:49:56;20.00;77.70
25108;DHT22;13090;53.422;7.670;2023-07-30T18:55:17;19.90;78.00
25108;DHT22;13090;53.422;7.670;2023-07-30T19:00:38;19.80;79.10
25108;DHT22;13090;53.422;7.670;2023-07-30T19:06:00;19.70;78.50
25108;DHT22;13090;53.422;7.670;2023-07-30T19:11:21;19.60;79.20
25108;DHT22;13090;53.422;7.670;2023-07-30T19:16:42;19.50;79.30
25108;DHT22;13090;53.422;7.670;2023-07-30T19:22:05;19.50;79.60
25108;DHT22;13090;53.422;7.670;2023-07-30T19:27:26;19.40;80.00
25108;DHT22;13090;53.422;7.670;2023-07-30T19:32:49;19.40;80.00
25108;DHT22;13090;53.422;7.670;2023-07-30T19:38:11;19.40;80.20
25108;DHT22;13090;53.422;7.670;2023-07-30T19:43:32;19.40;80.30
25108;DHT22;13090;53.422;7.670;2023-07-30T19:48:53;19.40;80.60
25108;DHT22;13090;53.422;7.670;2023-07-30T19:54:17;19.30;80.80
25108;DHT22;13090;53.422;7.670;2023-07-30T19:59:37;19.20;80.80
25108;DHT22;13090;53.422;7.670;2023-07-30T20:04:58;19.10;80.90
25108;DHT22;13090;53.422;7.670;2023-07-30T20:10:21;19.10;80.80
25108;DHT22;13090;53.422;7.670;2023-07-30T20:15:41;19.00;81.20
25108;DHT22;13090;53.422;7.670;2023-07-30T20:21:06;19.00;81.20
25108;DHT22;13090;53.422;7.670;2023-07-30T20:26:28;18.90;81.40
25108;DHT22;13090;53.422;7.670;2023-07-30T20:31:49;18.90;81.40
25108;DHT22;13090;53.422;7.670;2023-07-30T20:37:10;18.90;81.30
25108;DHT22;13090;53.422;7.670;2023-07-30T20:42:32;18.90;81.20
25108;DHT22;13090;53.422;7.670;2023-07-30T20:47:53;18.90;81.40
25108;DHT22;13090;53.422;7.670;2023-07-30T20:53:14;18.90;81.40
25108;DHT22;13090;53.422;7.670;2023-07-30T20:58:36;18.90;81.60
25108;DHT22;13090;53.422;7.670;2023-07-30T21:03:58;19.00;81.70
25108;DHT22;13090;53.422;7.670;2023-07-30T21:09:19;19.00;81.60
25108;DHT22;13090;53.422;7.670;2023-07-30T21:14:41;19.00;81.50
25108;DHT22;13090;53.422;7.670;2023-07-30T21:20:02;19.10;81.60
25108;DHT22;13090;53.422;7.670;2023-07-30T21:25:23;19.10;81.50
25108;DHT22;13090;53.422;7.670;2023-07-30T21:30:45;19.10;81.40
25108;DHT22;13090;53.422;7.670;2023-07-30T21:36:06;19.00;81.20
25108;DHT22;13090;53.422;7.670;2023-07-30T21:41:27;19.00;81.20
25108;DHT22;13090;53.422;7.670;2023-07-30T21:46:49;18.90;81.20
25108;DHT22;13090;53.422;7.670;2023-07-30T21:52:25;18.80;81.40
25108;DHT22;13090;53.422;7.670;2023-07-30T21:57:46;18.80;82.20
25108;DHT22;13090;53.422;7.670;2023-07-30T22:03:08;18.80;81.80
25108;DHT22;13090;53.422;7.670;2023-07-30T22:08:29;18.80;82.20
25108;DHT22;13090;53.422;7.670;2023-07-30T22:13:50;18.80;83.30
25108;DHT22;13090;53.422;7.670;2023-07-30T22:19:13;18.80;82.70
25108;DHT22;13090;53.422;7.670;2023-07-30T22:24:33;18.90;82.90
25108;DHT22;13090;53.422;7.670;2023-07-30T22:29:54;18.90;82.80
25108;DHT22;13090;53.422;7.670;2023-07-30T22:35:17;19.00;83.10
25108;DHT22;13090;53.422;7.670;2023-07-30T22:40:38;19.00;83.20
25108;DHT22;13090;53.422;7.670;2023-07-30T22:45:59;19.10;83.00
25108;DHT22;13090;53.422;7.670;2023-07-30T22:51:21;19.10;82.80
25108;DHT22;13090;53.422;7.670;2023-07-30T22:56:42;19.10;82.80
25108;DHT22;13090;53.422;7.670;2023-07-30T23:02:04;19.10;82.60
25108;DHT22;13090;53.422;7.670;2023-07-30T23:07:27;19.10;82.50
25108;DHT22;13090;53.422;7.670;2023-07-30T23:12:47;19.10;82.80
25108;DHT22;13090;53.422;7.670;2023-07-30T23:18:08;19.00;82.80
25108;DHT22;13090;53.422;7.670;2023-07-30T23:23:31;18.90;83.00
25108;DHT22;13090;53.422;7.670;2023-07-30T23:28:52;18.90;83.30
25108;DHT22;13090;53.422;7.670;2023-07-30T23:34:12;18.90;83.40
25108;DHT22;13090;53.422;7.670;2023-07-30T23:39:35;18.90;83.60
25108;DHT22;13090;53.422;7.670;2023-07-30T23:44:56;18.90;83.90
25108;DHT22;13090;53.422;7.670;2023-07-30T23:50:17;18.90;84.00
25108;DHT22;13090;53.422;7.670;2023-07-30T23:55:39;18.90;84.20
